createdAt,value
2022-12-15T00:00:11.808Z,20.05
2022-12-15T00:02:58.130Z,18.77
2022-12-15T00:05:43.531Z,17.95
2022-12-15T00:08:35.533Z,19.05
2022-12-15T00:11:21.949Z,20.13
2022-12-15T00:14:07.204Z,18.90
2022-12-15T00:16:52.862Z,18.45
2022-12-15T00:19:38.280Z,20.45
2022-12-15T00:22:26.270Z,20.85
2022-12-15T00:25:11.762Z,20.50
2022-12-15T00:27:58.331Z,20.83
2022-12-15T00:30:45.883Z,20.65
2022-12-15T00:33:35.785Z,20.27
2022-12-15T00:36:21.387Z,19.80
2022-12-15T00:38:48.352Z,19.40
2022-12-15T00:41:20.087Z,21.92
2022-12-15T00:43:50.103Z,19.52
2022-12-15T00:46:35.425Z,20.58
2022-12-15T00:49:03.806Z,20.52
2022-12-15T00:51:50.497Z,21.63
2022-12-15T00:54:37.191Z,21.63
2022-12-15T00:57:24.968Z,20.08
2022-12-15T01:00:18.270Z,20.67
2022-12-15T01:03:04.104Z,20.70
2022-12-15T01:05:49.514Z,20.63
2022-12-15T01:08:35.115Z,21.10
2022-12-15T01:11:20.662Z,20.35
2022-12-15T01:14:06.085Z,20.17
2022-12-15T01:16:52.493Z,20.90
2022-12-15T01:19:42.970Z,21.10
2022-12-15T01:22:10.891Z,20.25
2022-12-15T01:24:37.573Z,23.40
2022-12-15T01:27:04.310Z,19.65
2022-12-15T01:29:31.075Z,22.13
2022-12-15T01:31:59.113Z,22.60
2022-12-15T01:34:25.957Z,20.20
2022-12-15T01:36:54.228Z,21.30
2022-12-15T01:39:20.956Z,20.88
2022-12-15T01:41:51.200Z,21.38
2022-12-15T01:44:21.360Z,21.42
2022-12-15T01:46:55.875Z,21.40
2022-12-15T01:49:27.916Z,20.92
2022-12-15T01:52:03.135Z,20.20
2022-12-15T01:54:43.434Z,22.15
2022-12-15T01:57:14.718Z,22.63
2022-12-15T01:59:50.749Z,22.50
2022-12-15T02:02:21.820Z,21.55
2022-12-15T02:04:51.929Z,25.10
2022-12-15T02:07:19.374Z,23.33
2022-12-15T02:09:48.329Z,21.98
2022-12-15T02:12:20.819Z,23.48
2022-12-15T02:14:51.335Z,22.70
2022-12-15T02:17:52.361Z,23.45
2022-12-15T02:20:52.489Z,22.38
2022-12-15T02:23:40.781Z,23.02
2022-12-15T02:26:31.175Z,25.27
2022-12-15T02:29:27.522Z,23.05
2022-12-15T02:32:07.646Z,23.30
2022-12-15T02:34:48.092Z,24.58
2022-12-15T02:37:20.077Z,22.10
2022-12-15T02:39:48.149Z,23.88
2022-12-15T02:42:14.958Z,23.50
2022-12-15T02:44:53.951Z,23.43
2022-12-15T02:47:54.830Z,22.58
2022-12-15T02:50:47.578Z,21.90
2022-12-15T02:53:39.401Z,25.00
2022-12-15T02:56:13.936Z,22.15
2022-12-15T02:59:03.606Z,22.48
2022-12-15T03:01:40.128Z,21.75
2022-12-15T03:04:09.321Z,23.20
2022-12-15T03:06:36.411Z,23.75
2022-12-15T03:09:03.615Z,24.45
2022-12-15T03:11:30.922Z,24.85
2022-12-15T03:13:57.853Z,24.67
2022-12-15T03:16:24.742Z,23.02
2022-12-15T03:18:52.698Z,23.98
2022-12-15T03:21:19.652Z,23.85
2022-12-15T03:23:46.447Z,23.60
2022-12-15T03:26:13.203Z,25.00
2022-12-15T03:28:39.873Z,23.77
2022-12-15T03:31:10.228Z,23.15
2022-12-15T03:33:36.975Z,24.90
2022-12-15T03:36:07.256Z,23.87
2022-12-15T03:38:34.004Z,23.98
2022-12-15T03:41:00.643Z,23.67
2022-12-15T03:43:30.238Z,25.42
2022-12-15T03:45:57.345Z,23.38
2022-12-15T03:48:24.548Z,25.40
2022-12-15T03:50:51.718Z,24.80
2022-12-15T03:53:18.581Z,22.90
2022-12-15T03:55:46.506Z,24.38
2022-12-15T03:58:13.233Z,25.58
2022-12-15T04:00:39.976Z,22.80
2022-12-15T04:03:06.847Z,23.13
2022-12-15T04:05:34.789Z,24.85
2022-12-15T04:08:02.795Z,25.17
2022-12-15T04:10:34.780Z,25.15
2022-12-15T04:13:04.976Z,23.73
2022-12-15T04:15:32.446Z,25.38
2022-12-15T04:18:00.690Z,24.95
2022-12-15T04:20:27.453Z,24.83
2022-12-15T04:22:54.441Z,24.37
2022-12-15T04:25:43.096Z,25.80
2022-12-15T04:28:30.090Z,23.92
2022-12-15T04:31:33.153Z,24.80
2022-12-15T04:34:22.518Z,23.75
2022-12-15T04:37:11.268Z,25.13
2022-12-15T04:40:00.199Z,25.23
2022-12-15T04:45:32.446Z,24.45
2022-12-15T04:48:18.489Z,25.33
2022-12-15T04:51:04.096Z,23.10
2022-12-15T04:53:49.838Z,25.80
2022-12-15T04:56:35.443Z,24.60
2022-12-15T04:59:20.794Z,24.42
2022-12-15T05:02:06.723Z,24.10
2022-12-15T05:04:54.711Z,24.05
2022-12-15T05:07:44.030Z,23.38
2022-12-15T05:10:30.161Z,24.77
2022-12-15T05:13:26.444Z,25.23
2022-12-15T05:16:12.187Z,23.70
2022-12-15T05:18:57.406Z,23.35
2022-12-15T05:21:43.020Z,23.42
2022-12-15T05:24:28.789Z,24.13
2022-12-15T05:27:14.149Z,25.50
2022-12-15T05:29:59.894Z,24.48
2022-12-15T05:32:26.790Z,23.50
2022-12-15T05:34:53.539Z,23.58
2022-12-15T05:37:20.386Z,24.50
2022-12-15T05:39:48.367Z,23.35
2022-12-15T05:42:17.477Z,22.60
2022-12-15T05:44:44.222Z,23.90
2022-12-15T05:47:12.342Z,25.70
2022-12-15T05:49:39.104Z,26.08
2022-12-15T05:52:09.070Z,25.73
2022-12-15T05:54:35.892Z,22.67
2022-12-15T05:57:02.584Z,23.97
2022-12-15T05:59:29.308Z,24.05
2022-12-15T06:01:57.284Z,23.57
2022-12-15T06:04:24.313Z,24.52
2022-12-15T06:06:51.046Z,23.33
2022-12-15T06:09:17.772Z,24.02
2022-12-15T06:11:44.762Z,24.27
2022-12-15T06:14:11.415Z,25.45
2022-12-15T06:16:50.211Z,24.42
2022-12-15T06:19:18.185Z,26.55
2022-12-15T06:21:44.914Z,25.93
2022-12-15T06:24:11.606Z,26.27
2022-12-15T06:26:40.106Z,33.03
2022-12-15T06:29:09.039Z,27.25
2022-12-15T06:31:37.052Z,26.15
2022-12-15T06:34:06.311Z,26.33
2022-12-15T06:36:34.649Z,25.23
2022-12-15T06:39:04.264Z,27.17
2022-12-15T06:41:32.481Z,24.98
2022-12-15T06:44:01.200Z,22.83
2022-12-15T06:46:30.207Z,23.70
2022-12-15T06:48:57.723Z,24.60
2022-12-15T06:51:25.444Z,25.88
2022-12-15T06:56:34.403Z,25.85
2022-12-15T06:59:03.414Z,24.38
2022-12-15T07:01:32.158Z,25.33
2022-12-15T07:04:02.666Z,26.85
2022-12-15T07:06:36.316Z,24.50
2022-12-15T07:09:05.324Z,27.30
2022-12-15T07:11:34.152Z,26.10
2022-12-15T07:14:01.056Z,25.05
2022-12-15T07:16:30.562Z,25.02
2022-12-15T07:18:57.454Z,25.70
2022-12-15T07:21:26.267Z,25.13
2022-12-15T07:23:56.808Z,26.77
2022-12-15T07:26:24.801Z,26.83
2022-12-15T07:28:53.582Z,27.55
2022-12-15T07:31:21.675Z,24.17
2022-12-15T07:33:48.803Z,25.02
2022-12-15T07:36:15.882Z,26.05
2022-12-15T07:38:43.245Z,25.48
2022-12-15T07:41:10.434Z,25.08
2022-12-15T07:43:39.266Z,24.83
2022-12-15T07:46:06.832Z,24.58
2022-12-15T07:48:33.787Z,26.10
2022-12-15T07:51:10.958Z,23.17
2022-12-15T07:53:39.845Z,23.73
2022-12-15T07:56:09.339Z,23.35
2022-12-15T07:58:38.252Z,24.67
2022-12-15T08:01:07.990Z,23.58
2022-12-15T08:03:36.132Z,23.73
2022-12-15T08:06:05.337Z,23.92
2022-12-15T08:08:33.049Z,23.95
2022-12-15T08:11:04.846Z,23.10
2022-12-15T08:14:01.398Z,22.98
2022-12-15T08:16:20.042Z,23.27
2022-12-15T08:18:46.888Z,22.67
2022-12-15T08:21:14.814Z,22.25
2022-12-15T08:23:41.580Z,26.92
2022-12-15T08:26:11.412Z,24.73
2022-12-15T08:28:39.908Z,21.85
2022-12-15T08:31:09.407Z,23.13
2022-12-15T08:33:37.521Z,22.75
2022-12-15T08:36:07.473Z,21.88
2022-12-15T08:38:35.794Z,22.00
2022-12-15T08:43:48.088Z,22.75
2022-12-15T08:46:25.672Z,22.33
2022-12-15T08:48:53.279Z,21.02
2022-12-15T08:51:21.209Z,20.85
2022-12-15T08:54:02.164Z,21.55
2022-12-15T08:56:29.959Z,21.92
2022-12-15T08:59:02.820Z,20.83
2022-12-15T09:01:40.647Z,22.55
2022-12-15T09:04:08.031Z,21.52
2022-12-15T09:06:36.958Z,21.75
2022-12-15T09:09:09.216Z,20.48
2022-12-15T09:11:37.155Z,20.45
2022-12-15T09:14:08.576Z,20.45
2022-12-15T09:16:35.511Z,21.42
2022-12-15T09:19:10.236Z,21.75
2022-12-15T09:21:41.393Z,20.23
2022-12-15T09:24:14.737Z,20.02
2022-12-15T09:26:52.987Z,20.30
2022-12-15T09:29:25.962Z,18.30
2022-12-15T09:32:01.358Z,20.80
2022-12-15T09:34:32.167Z,19.67
2022-12-15T09:37:00.282Z,20.85
2022-12-15T09:39:29.272Z,20.27
2022-12-15T09:42:00.424Z,19.33
2022-12-15T09:44:35.428Z,20.92
2022-12-15T09:47:07.902Z,19.92
2022-12-15T09:50:16.001Z,22.58
2022-12-15T09:53:01.356Z,20.58
2022-12-15T09:55:32.860Z,22.60
2022-12-15T09:58:18.032Z,19.42
2022-12-15T10:01:00.234Z,21.52
2022-12-15T10:04:08.238Z,23.50
2022-12-15T10:06:54.973Z,20.55
2022-12-15T10:09:28.452Z,19.45
2022-12-15T10:12:07.794Z,21.33
2022-12-15T10:14:53.835Z,21.48
2022-12-15T10:17:50.361Z,20.15
2022-12-15T10:20:25.155Z,21.05
2022-12-15T10:22:58.077Z,21.95
2022-12-15T10:25:31.714Z,21.50
2022-12-15T10:28:37.984Z,21.90
2022-12-15T10:31:29.143Z,22.35
2022-12-15T10:34:26.314Z,21.92
2022-12-15T10:37:06.181Z,21.60
2022-12-15T10:39:50.166Z,20.42
2022-12-15T10:42:24.220Z,21.25
2022-12-15T10:45:05.443Z,19.02
2022-12-15T10:47:33.732Z,19.60
2022-12-15T10:50:25.276Z,21.20
2022-12-15T10:52:58.258Z,20.98
2022-12-15T10:55:38.392Z,21.95
2022-12-15T10:58:32.335Z,21.05
2022-12-15T11:01:22.316Z,22.30
2022-12-15T11:06:38.274Z,38.65
2022-12-15T11:09:36.726Z,21.20
2022-12-15T11:12:50.721Z,18.42
2022-12-15T11:15:42.118Z,18.77
2022-12-15T11:18:22.497Z,19.35
2022-12-15T11:21:08.997Z,20.27
2022-12-15T11:24:16.000Z,19.75
2022-12-15T11:26:51.003Z,21.15
2022-12-15T11:29:46.578Z,19.25
2022-12-15T11:32:23.950Z,20.05
2022-12-15T11:34:58.643Z,17.48
2022-12-15T11:37:41.316Z,19.02
2022-12-15T11:40:36.185Z,18.70
2022-12-15T11:43:42.042Z,17.90
2022-12-15T11:46:28.685Z,18.48
2022-12-15T11:49:14.483Z,21.48
2022-12-15T11:52:08.889Z,19.15
2022-12-15T11:55:15.826Z,19.30
2022-12-15T11:58:19.799Z,19.20
2022-12-15T12:01:07.647Z,19.10
2022-12-15T12:04:00.255Z,20.67
2022-12-15T12:06:48.011Z,19.40
2022-12-15T12:09:37.900Z,19.63
2022-12-15T12:12:21.824Z,19.83
2022-12-15T12:15:16.805Z,19.92
2022-12-15T12:17:52.643Z,20.98
2022-12-15T12:20:25.622Z,20.90
2022-12-15T12:23:23.036Z,20.05
2022-12-15T12:26:20.024Z,20.52
2022-12-15T12:29:24.749Z,20.95
2022-12-15T12:32:04.860Z,20.67
2022-12-15T12:34:53.973Z,20.95
2022-12-15T12:38:03.203Z,19.83
2022-12-15T12:40:55.587Z,19.92
2022-12-15T12:43:35.528Z,22.75
2022-12-15T12:46:24.673Z,23.10
2022-12-15T12:49:36.285Z,23.38
2022-12-15T12:52:05.929Z,29.45
2022-12-15T12:54:33.235Z,21.67
2022-12-15T12:57:22.568Z,20.08
2022-12-15T12:59:51.934Z,23.15
2022-12-15T13:02:29.758Z,23.27
2022-12-15T13:05:22.865Z,25.40
2022-12-15T13:08:16.176Z,23.45
2022-12-15T13:10:50.774Z,25.17
2022-12-15T13:13:36.198Z,23.90
2022-12-15T13:16:06.348Z,22.50
2022-12-15T13:19:03.614Z,23.20
2022-12-15T13:21:45.078Z,23.33
2022-12-15T13:24:37.205Z,23.45
2022-12-15T13:27:11.129Z,26.65
2022-12-15T13:30:17.759Z,24.90
2022-12-15T13:32:55.913Z,26.13
2022-12-15T13:35:31.480Z,24.45
2022-12-15T13:38:07.571Z,24.33
2022-12-15T13:40:41.109Z,22.70
2022-12-15T13:43:32.025Z,24.10
2022-12-15T13:46:15.289Z,23.20
2022-12-15T13:48:53.460Z,22.80
2022-12-15T13:51:32.033Z,23.45
2022-12-15T13:54:20.152Z,22.80
2022-12-15T13:57:02.977Z,22.57
2022-12-15T14:00:29.436Z,23.42
2022-12-15T14:03:13.396Z,24.98
2022-12-15T14:08:38.624Z,25.02
2022-12-15T14:11:53.856Z,23.48
2022-12-15T14:19:05.451Z,25.17
2022-12-15T14:22:18.237Z,24.95
2022-12-15T14:28:07.706Z,25.40
2022-12-15T14:30:38.118Z,26.42
2022-12-15T14:33:16.943Z,27.20
2022-12-15T14:35:50.102Z,30.02
2022-12-15T14:38:41.307Z,26.42
2022-12-15T14:41:22.260Z,27.20
2022-12-15T14:44:37.937Z,28.83
2022-12-15T14:46:48.967Z,30.40
2022-12-15T14:49:30.594Z,26.90
2022-12-15T14:52:06.949Z,26.40
2022-12-15T14:54:52.445Z,25.00
2022-12-15T14:57:53.274Z,29.48
2022-12-15T15:00:35.609Z,29.00
2022-12-15T15:03:19.723Z,28.77
2022-12-15T15:06:00.196Z,26.25
2022-12-15T15:08:51.112Z,28.08
2022-12-15T15:11:24.405Z,27.88
2022-12-15T15:13:56.782Z,28.58
2022-12-15T15:16:24.301Z,30.77
2022-12-15T15:18:55.473Z,28.83
2022-12-15T15:24:56.634Z,30.33
2022-12-15T15:27:42.365Z,28.65
2022-12-15T15:30:21.575Z,27.67
2022-12-15T15:35:33.938Z,28.33
2022-12-15T15:38:30.940Z,30.00
2022-12-15T15:41:23.351Z,32.75
2022-12-15T15:43:50.155Z,32.13
2022-12-15T15:46:20.651Z,29.63
2022-12-15T15:48:58.952Z,29.58
2022-12-15T15:51:27.355Z,27.48
2022-12-15T15:53:58.801Z,29.92
2022-12-15T15:56:27.503Z,29.08
2022-12-15T15:58:54.413Z,29.17
2022-12-15T16:01:21.303Z,31.75
2022-12-15T16:03:52.663Z,28.83
2022-12-15T16:06:21.882Z,30.35
2022-12-15T16:08:52.029Z,28.23
2022-12-15T16:11:22.178Z,29.95
2022-12-15T16:13:49.015Z,29.23
2022-12-15T16:16:22.082Z,30.10
2022-12-15T16:18:50.143Z,31.92
2022-12-15T16:21:17.919Z,37.15
2022-12-15T16:23:47.509Z,32.40
2022-12-15T16:26:17.276Z,31.98
2022-12-15T16:28:48.326Z,30.10
2022-12-15T16:31:27.183Z,29.20
2022-12-15T16:33:54.186Z,29.50
2022-12-15T16:36:22.532Z,29.23
2022-12-15T16:38:50.721Z,27.90
2022-12-15T16:41:18.336Z,30.13
2022-12-15T16:46:15.998Z,30.25
2022-12-15T16:51:37.082Z,30.83
2022-12-15T16:54:05.693Z,30.40
2022-12-15T16:56:33.078Z,28.55
2022-12-15T16:59:31.545Z,31.25
2022-12-15T17:01:51.081Z,32.67
2022-12-15T17:04:19.310Z,33.25
2022-12-15T17:06:46.271Z,33.92
2022-12-15T17:09:22.912Z,30.35
2022-12-15T17:11:50.616Z,32.50
2022-12-15T17:16:45.123Z,29.67
2022-12-15T17:19:16.155Z,29.05
2022-12-15T17:21:49.407Z,27.02
2022-12-15T17:24:18.742Z,26.05
2022-12-15T17:26:45.668Z,27.92
2022-12-15T17:29:23.426Z,26.90
2022-12-15T17:31:50.744Z,27.13
2022-12-15T17:34:28.467Z,29.33
2022-12-15T17:37:04.430Z,26.52
2022-12-15T17:39:34.031Z,26.58
2022-12-15T17:42:02.080Z,26.85
2022-12-15T17:44:34.483Z,28.10
2022-12-15T17:47:04.363Z,28.05
2022-12-15T17:49:35.485Z,29.00
2022-12-15T17:52:07.894Z,30.00
2022-12-15T17:54:35.578Z,27.45
2022-12-15T17:59:36.457Z,26.90
2022-12-15T18:02:03.303Z,26.58
2022-12-15T18:04:30.203Z,27.58
2022-12-15T18:07:01.537Z,27.43
2022-12-15T18:09:29.972Z,27.77
2022-12-15T18:11:57.010Z,30.65
2022-12-15T18:14:31.304Z,27.10
2022-12-15T18:16:58.049Z,27.95
2022-12-15T18:19:27.972Z,29.90
2022-12-15T18:21:58.550Z,27.45
2022-12-15T18:24:26.947Z,28.10
2022-12-15T18:26:54.630Z,27.52
2022-12-15T18:31:49.750Z,27.88
2022-12-15T18:34:18.739Z,27.77
2022-12-15T18:36:45.544Z,26.02
2022-12-15T18:39:21.906Z,24.67
2022-12-15T18:41:57.703Z,26.20
2022-12-15T18:44:26.642Z,25.30
2022-12-15T18:46:55.221Z,24.98
2022-12-15T18:49:23.319Z,26.35
2022-12-15T18:54:25.324Z,22.73
2022-12-15T18:56:53.110Z,23.00
2022-12-15T18:59:22.725Z,24.90
2022-12-15T19:01:49.805Z,29.75
2022-12-15T19:06:45.109Z,29.25
2022-12-15T19:09:19.170Z,26.85
2022-12-15T19:12:09.598Z,23.92
2022-12-15T19:14:42.916Z,24.08
2022-12-15T19:17:37.769Z,22.65
2022-12-15T19:20:32.829Z,22.70
2022-12-15T19:22:59.784Z,22.92
2022-12-15T19:25:28.671Z,24.73
2022-12-15T19:27:59.174Z,23.88
2022-12-15T19:30:41.697Z,24.63
2022-12-15T19:33:09.999Z,24.48
2022-12-15T19:38:04.999Z,22.67
2022-12-15T19:40:34.360Z,24.50
2022-12-15T19:43:02.161Z,24.45
2022-12-15T19:45:31.251Z,24.77
2022-12-15T19:47:59.670Z,25.05
2022-12-15T19:50:36.233Z,23.80
2022-12-15T19:53:11.274Z,22.70
2022-12-15T19:55:39.024Z,24.85
2022-12-15T20:00:44.496Z,21.73
2022-12-15T20:03:11.479Z,26.02
2022-12-15T20:05:38.531Z,27.00
2022-12-15T20:08:05.713Z,27.40
2022-12-15T20:10:32.896Z,25.80
2022-12-15T20:13:01.096Z,26.00
2022-12-15T20:15:29.815Z,25.77
2022-12-15T20:17:58.381Z,28.33
2022-12-15T20:20:27.963Z,26.02
2022-12-15T20:22:59.796Z,26.80
2022-12-15T20:25:30.360Z,25.00
2022-12-15T20:27:57.781Z,26.50
2022-12-15T20:30:29.832Z,24.65
2022-12-15T20:32:56.777Z,24.60
2022-12-15T20:35:27.108Z,25.58
2022-12-15T20:37:55.366Z,25.88
2022-12-15T20:40:28.436Z,28.10
2022-12-15T20:42:57.148Z,22.70
2022-12-15T20:45:26.724Z,24.77
2022-12-15T20:47:57.009Z,23.50
2022-12-15T20:50:40.983Z,24.92
2022-12-15T20:53:21.681Z,26.75
2022-12-15T20:55:49.729Z,23.80
2022-12-15T20:58:17.763Z,23.60
2022-12-15T21:00:45.782Z,24.50
2022-12-15T21:03:19.649Z,24.92
2022-12-15T21:05:47.633Z,19.73
2022-12-15T21:08:25.505Z,23.60
2022-12-15T21:10:58.628Z,23.75
2022-12-15T21:13:27.905Z,23.83
2022-12-15T21:15:54.905Z,25.50
2022-12-15T21:21:24.564Z,23.20
2022-12-15T21:23:51.567Z,20.58
2022-12-15T21:26:21.869Z,21.50
2022-12-15T21:28:54.031Z,22.63
2022-12-15T21:31:21.841Z,22.15
2022-12-15T21:33:48.724Z,21.38
2022-12-15T21:36:21.020Z,19.33
2022-12-15T21:38:50.896Z,21.25
2022-12-15T21:41:22.774Z,21.27
2022-12-15T21:43:50.007Z,20.45
2022-12-15T21:46:27.864Z,20.75
2022-12-15T21:49:18.292Z,22.45
2022-12-15T21:51:50.565Z,18.52
2022-12-15T21:54:30.484Z,21.65
2022-12-15T21:56:58.273Z,20.33
2022-12-15T21:59:27.734Z,18.60
2022-12-15T22:01:56.144Z,20.35
2022-12-15T22:04:34.390Z,21.20
2022-12-15T22:07:01.978Z,19.08
2022-12-15T22:11:56.569Z,21.00
2022-12-15T22:14:33.955Z,20.85
2022-12-15T22:17:02.221Z,20.93
2022-12-15T22:19:29.104Z,19.98
2022-12-15T22:21:56.966Z,20.95
2022-12-15T22:24:23.671Z,20.80
2022-12-15T22:26:50.558Z,21.65
2022-12-15T22:29:19.260Z,21.67
2022-12-15T22:31:47.249Z,21.70
2022-12-15T22:34:16.491Z,21.17
2022-12-15T22:36:45.207Z,20.42
2022-12-15T22:39:12.220Z,21.23
2022-12-15T22:41:41.378Z,20.83
2022-12-15T22:44:21.157Z,21.60
2022-12-15T22:46:49.855Z,21.13
2022-12-15T22:49:27.870Z,23.33
2022-12-15T22:51:54.998Z,20.08
2022-12-15T22:54:24.174Z,20.13
2022-12-15T22:56:55.498Z,19.67
2022-12-15T22:59:32.554Z,20.25
2022-12-15T23:02:02.580Z,22.05
2022-12-15T23:04:30.418Z,20.67
2022-12-15T23:06:59.179Z,20.00
2022-12-15T23:09:26.063Z,20.58
2022-12-15T23:11:52.881Z,20.50
2022-12-15T23:14:45.043Z,23.52
2022-12-15T23:17:12.768Z,20.00
2022-12-15T23:22:11.142Z,21.85
2022-12-15T23:24:37.855Z,21.08
2022-12-15T23:27:04.980Z,19.40
2022-12-15T23:29:32.918Z,21.45
2022-12-15T23:31:59.686Z,19.98
2022-12-15T23:34:26.437Z,24.07
2022-12-15T23:36:53.190Z,17.52
2022-12-15T23:39:20.085Z,21.53
2022-12-15T23:41:46.736Z,21.42
2022-12-15T23:44:13.452Z,22.27
2022-12-15T23:46:40.224Z,20.40
2022-12-15T23:49:07.183Z,20.63
2022-12-15T23:51:33.859Z,20.27
2022-12-15T23:54:01.274Z,19.33
2022-12-15T23:56:27.959Z,23.25
2022-12-15T23:58:56.826Z,21.42
